sensor_id;sensor_type;location;lat;lon;timestamp;temperature;humidity
22491;DHT22;11412;50.802;4.350;2022-07-06T00:00:33;14.70;99.90
22491;DHT22;11412;50.802;4.350;2022-07-06T00:02:59;14.70;99.90
22491;DHT22;11412;50.802;4.350;2022-07-06T00:05:25;14.70;99.90
22491;DHT22;11412;50.802;4.350;2022-07-06T00:07:51;14.70;99.90
22491;DHT22;11412;50.802;4.350;2022-07-06T00:10:16;14.70;99.90
22491;DHT22;11412;50.802;4.350;2022-07-06T00:12:42;14.60;99.90
22491;DHT22;11412;50.802;4.350;2022-07-06T00:15:08;14.60;99.90
22491;DHT22;11412;50.802;4.350;2022-07-06T00:17:34;14.40;99.90
22491;DHT22;11412;50.802;4.350;2022-07-06T00:20:00;14.30;99.90
22491;DHT22;11412;50.802;4.350;2022-07-06T00:22:25;14.40;99.90
22491;DHT22;11412;50.802;4.350;2022-07-06T00:24:51;14.30;99.90
22491;DHT22;11412;50.802;4.350;2022-07-06T00:27:17;14.30;99.90
22491;DHT22;11412;50.802;4.350;2022-07-06T00:29:42;14.20;99.90
22491;DHT22;11412;50.802;4.350;2022-07-06T00:32:12;14.10;99.90
22491;DHT22;11412;50.802;4.350;2022-07-06T00:34:38;14.10;99.90
22491;DHT22;11412;50.802;4.350;2022-07-06T00:37:06;14.10;99.90
22491;DHT22;11412;50.802;4.350;2022-07-06T00:39:33;14.20;99.90
22491;DHT22;11412;50.802;4.350;2022-07-06T00:41:59;14.20;99.90
22491;DHT22;11412;50.802;4.350;2022-07-06T00:44:25;14.10;99.90
22491;DHT22;11412;50.802;4.350;2022-07-06T00:46:51;13.90;99.90
22491;DHT22;11412;50.802;4.350;2022-07-06T00:49:16;13.90;99.90
22491;DHT22;11412;50.802;4.350;2022-07-06T00:52:01;13.80;99.90
22491;DHT22;11412;50.802;4.350;2022-07-06T00:54:31;13.70;99.90
22491;DHT22;11412;50.802;4.350;2022-07-06T00:56:58;13.70;99.90
22491;DHT22;11412;50.802;4.350;2022-07-06T00:59:24;13.70;99.90
22491;DHT22;11412;50.802;4.350;2022-07-06T01:01:50;13.60;99.90
22491;DHT22;11412;50.802;4.350;2022-07-06T01:04:16;13.60;99.90
22491;DHT22;11412;50.802;4.350;2022-07-06T01:06:43;13.60;99.90
22491;DHT22;11412;50.802;4.350;2022-07-06T01:09:11;13.50;99.90
22491;DHT22;11412;50.802;4.350;2022-07-06T01:11:37;13.50;99.90
22491;DHT22;11412;50.802;4.350;2022-07-06T01:14:03;13.50;99.90
22491;DHT22;11412;50.802;4.350;2022-07-06T01:16:30;13.40;99.90
22491;DHT22;11412;50.802;4.350;2022-07-06T01:18:56;13.50;99.90
22491;DHT22;11412;50.802;4.350;2022-07-06T01:21:21;13.50;99.90
22491;DHT22;11412;50.802;4.350;2022-07-06T01:23:47;13.40;99.90
22491;DHT22;11412;50.802;4.350;2022-07-06T01:26:15;13.40;99.90
22491;DHT22;11412;50.802;4.350;2022-07-06T01:28:41;13.30;99.90
22491;DHT22;11412;50.802;4.350;2022-07-06T01:31:15;13.30;99.90
22491;DHT22;11412;50.802;4.350;2022-07-06T01:33:43;13.30;99.90
22491;DHT22;11412;50.802;4.350;2022-07-06T01:36:09;13.20;99.90
22491;DHT22;11412;50.802;4.350;2022-07-06T01:38:51;13.20;99.90
22491;DHT22;11412;50.802;4.350;2022-07-06T01:41:17;13.10;99.90
22491;DHT22;11412;50.802;4.350;2022-07-06T01:43:44;13.10;99.90
22491;DHT22;11412;50.802;4.350;2022-07-06T01:46:10;13.10;99.90
22491;DHT22;11412;50.802;4.350;2022-07-06T01:48:36;13.10;99.90
22491;DHT22;11412;50.802;4.350;2022-07-06T01:51:02;13.00;99.90
22491;DHT22;11412;50.802;4.350;2022-07-06T01:53:27;13.00;99.90
22491;DHT22;11412;50.802;4.350;2022-07-06T01:55:53;13.10;99.90
22491;DHT22;11412;50.802;4.350;2022-07-06T01:58:18;12.90;99.90
22491;DHT22;11412;50.802;4.350;2022-07-06T02:00:44;12.90;99.90
22491;DHT22;11412;50.802;4.350;2022-07-06T02:03:10;13.00;99.90
22491;DHT22;11412;50.802;4.350;2022-07-06T02:05:35;13.00;99.90
22491;DHT22;11412;50.802;4.350;2022-07-06T02:08:01;12.90;99.90
22491;DHT22;11412;50.802;4.350;2022-07-06T02:10:26;13.00;99.90
22491;DHT22;11412;50.802;4.350;2022-07-06T02:12:52;12.90;99.90
22491;DHT22;11412;50.802;4.350;2022-07-06T02:15:18;12.80;99.90
22491;DHT22;11412;50.802;4.350;2022-07-06T02:17:43;12.80;99.90
22491;DHT22;11412;50.802;4.350;2022-07-06T02:20:09;12.80;99.90
22491;DHT22;11412;50.802;4.350;2022-07-06T02:22:35;12.80;99.90
22491;DHT22;11412;50.802;4.350;2022-07-06T02:25:01;12.70;99.90
22491;DHT22;11412;50.802;4.350;2022-07-06T02:27:26;12.70;99.90
22491;DHT22;11412;50.802;4.350;2022-07-06T02:29:52;12.60;99.90
22491;DHT22;11412;50.802;4.350;2022-07-06T02:32:18;12.60;99.90
22491;DHT22;11412;50.802;4.350;2022-07-06T02:34:44;12.60;99.90
22491;DHT22;11412;50.802;4.350;2022-07-06T02:37:09;12.50;99.90
22491;DHT22;11412;50.802;4.350;2022-07-06T02:39:35;12.70;99.90
22491;DHT22;11412;50.802;4.350;2022-07-06T02:42:01;12.70;99.90
22491;DHT22;11412;50.802;4.350;2022-07-06T02:44:26;12.80;99.90
22491;DHT22;11412;50.802;4.350;2022-07-06T02:46:52;12.70;99.90
22491;DHT22;11412;50.802;4.350;2022-07-06T02:49:18;12.60;99.90
22491;DHT22;11412;50.802;4.350;2022-07-06T02:51:44;12.60;99.90
22491;DHT22;11412;50.802;4.350;2022-07-06T02:54:09;12.60;99.90
22491;DHT22;11412;50.802;4.350;2022-07-06T02:56:35;12.70;99.90
22491;DHT22;11412;50.802;4.350;2022-07-06T02:59:00;12.50;99.90
22491;DHT22;11412;50.802;4.350;2022-07-06T03:01:26;12.60;99.90
22491;DHT22;11412;50.802;4.350;2022-07-06T03:03:52;12.50;99.90
22491;DHT22;11412;50.802;4.350;2022-07-06T03:06:17;12.50;99.90
22491;DHT22;11412;50.802;4.350;2022-07-06T03:08:43;12.40;99.90
22491;DHT22;11412;50.802;4.350;2022-07-06T03:11:09;12.40;99.90
22491;DHT22;11412;50.802;4.350;2022-07-06T03:13:35;12.40;99.90
22491;DHT22;11412;50.802;4.350;2022-07-06T03:16:01;12.40;99.90
22491;DHT22;11412;50.802;4.350;2022-07-06T03:18:27;12.40;99.90
22491;DHT22;11412;50.802;4.350;2022-07-06T03:20:53;12.30;99.90
22491;DHT22;11412;50.802;4.350;2022-07-06T03:23:18;12.20;99.90
22491;DHT22;11412;50.802;4.350;2022-07-06T03:25:45;12.30;99.90
22491;DHT22;11412;50.802;4.350;2022-07-06T03:28:11;12.40;99.90
22491;DHT22;11412;50.802;4.350;2022-07-06T03:30:37;12.40;99.90
22491;DHT22;11412;50.802;4.350;2022-07-06T03:33:03;12.40;99.90
22491;DHT22;11412;50.802;4.350;2022-07-06T03:35:28;12.40;99.90
22491;DHT22;11412;50.802;4.350;2022-07-06T03:37:54;12.40;99.90
22491;DHT22;11412;50.802;4.350;2022-07-06T03:40:20;12.50;99.90
22491;DHT22;11412;50.802;4.350;2022-07-06T03:42:45;12.40;99.90
22491;DHT22;11412;50.802;4.350;2022-07-06T03:45:11;12.30;99.90
22491;DHT22;11412;50.802;4.350;2022-07-06T03:47:36;12.30;99.90
22491;DHT22;11412;50.802;4.350;2022-07-06T03:50:03;12.20;99.90
22491;DHT22;11412;50.802;4.350;2022-07-06T03:52:28;12.20;99.90
22491;DHT22;11412;50.802;4.350;2022-07-06T03:54:55;12.20;99.90
22491;DHT22;11412;50.802;4.350;2022-07-06T03:57:21;12.20;99.90
22491;DHT22;11412;50.802;4.350;2022-07-06T03:59:47;12.10;99.90
22491;DHT22;11412;50.802;4.350;2022-07-06T04:02:13;12.20;99.90
22491;DHT22;11412;50.802;4.350;2022-07-06T04:04:38;12.20;99.90
22491;DHT22;11412;50.802;4.350;2022-07-06T04:07:04;12.10;99.90
22491;DHT22;11412;50.802;4.350;2022-07-06T04:09:30;12.20;99.90
22491;DHT22;11412;50.802;4.350;2022-07-06T04:11:55;12.20;99.90
22491;DHT22;11412;50.802;4.350;2022-07-06T04:14:21;12.40;99.90
22491;DHT22;11412;50.802;4.350;2022-07-06T04:16:47;12.40;99.90
22491;DHT22;11412;50.802;4.350;2022-07-06T04:19:12;12.60;99.90
22491;DHT22;11412;50.802;4.350;2022-07-06T04:21:38;12.60;99.90
22491;DHT22;11412;50.802;4.350;2022-07-06T04:24:04;12.60;99.90
22491;DHT22;11412;50.802;4.350;2022-07-06T04:26:30;12.60;99.90
22491;DHT22;11412;50.802;4.350;2022-07-06T04:28:55;12.50;99.90
22491;DHT22;11412;50.802;4.350;2022-07-06T04:31:21;12.60;99.90
22491;DHT22;11412;50.802;4.350;2022-07-06T04:33:47;12.50;99.90
22491;DHT22;11412;50.802;4.350;2022-07-06T04:36:13;12.40;99.90
22491;DHT22;11412;50.802;4.350;2022-07-06T04:38:38;12.40;99.90
22491;DHT22;11412;50.802;4.350;2022-07-06T04:41:04;12.50;99.90
22491;DHT22;11412;50.802;4.350;2022-07-06T04:43:30;12.60;99.90
22491;DHT22;11412;50.802;4.350;2022-07-06T04:45:55;12.70;99.90
22491;DHT22;11412;50.802;4.350;2022-07-06T04:48:21;12.80;99.90
22491;DHT22;11412;50.802;4.350;2022-07-06T04:50:47;12.90;99.90
22491;DHT22;11412;50.802;4.350;2022-07-06T04:53:12;13.00;99.90
22491;DHT22;11412;50.802;4.350;2022-07-06T04:55:38;13.10;99.90
22491;DHT22;11412;50.802;4.350;2022-07-06T04:58:04;13.10;99.90
22491;DHT22;11412;50.802;4.350;2022-07-06T05:00:29;13.10;99.90
22491;DHT22;11412;50.802;4.350;2022-07-06T05:02:55;13.20;99.90
22491;DHT22;11412;50.802;4.350;2022-07-06T05:05:20;13.20;99.90
22491;DHT22;11412;50.802;4.350;2022-07-06T05:07:46;13.30;99.90
22491;DHT22;11412;50.802;4.350;2022-07-06T05:10:12;13.40;99.90
22491;DHT22;11412;50.802;4.350;2022-07-06T05:12:38;13.40;99.90
22491;DHT22;11412;50.802;4.350;2022-07-06T05:15:04;13.30;99.90
22491;DHT22;11412;50.802;4.350;2022-07-06T05:17:30;13.30;99.90
22491;DHT22;11412;50.802;4.350;2022-07-06T05:19:56;13.30;99.90
22491;DHT22;11412;50.802;4.350;2022-07-06T05:22:22;13.40;99.90
22491;DHT22;11412;50.802;4.350;2022-07-06T05:24:47;13.40;99.90
22491;DHT22;11412;50.802;4.350;2022-07-06T05:27:13;13.50;99.90
22491;DHT22;11412;50.802;4.350;2022-07-06T05:29:39;13.60;99.90
22491;DHT22;11412;50.802;4.350;2022-07-06T05:32:05;13.70;99.90
22491;DHT22;11412;50.802;4.350;2022-07-06T05:34:31;13.80;99.90
22491;DHT22;11412;50.802;4.350;2022-07-06T05:36:56;13.80;99.90
22491;DHT22;11412;50.802;4.350;2022-07-06T05:39:22;13.80;99.90
22491;DHT22;11412;50.802;4.350;2022-07-06T05:41:48;13.90;99.90
22491;DHT22;11412;50.802;4.350;2022-07-06T05:44:15;14.00;99.90
22491;DHT22;11412;50.802;4.350;2022-07-06T05:46:40;14.10;99.90
22491;DHT22;11412;50.802;4.350;2022-07-06T05:49:06;14.30;99.90
22491;DHT22;11412;50.802;4.350;2022-07-06T05:51:50;14.30;99.90
22491;DHT22;11412;50.802;4.350;2022-07-06T05:54:16;14.50;99.90
22491;DHT22;11412;50.802;4.350;2022-07-06T05:56:42;14.70;99.90
22491;DHT22;11412;50.802;4.350;2022-07-06T05:59:07;14.80;99.90
22491;DHT22;11412;50.802;4.350;2022-07-06T06:01:33;14.90;99.90
22491;DHT22;11412;50.802;4.350;2022-07-06T06:03:59;14.90;99.90
22491;DHT22;11412;50.802;4.350;2022-07-06T06:06:26;14.90;99.90
22491;DHT22;11412;50.802;4.350;2022-07-06T06:08:51;15.10;99.90
22491;DHT22;11412;50.802;4.350;2022-07-06T06:11:17;15.10;99.90
22491;DHT22;11412;50.802;4.350;2022-07-06T06:13:43;15.10;99.90
22491;DHT22;11412;50.802;4.350;2022-07-06T06:16:09;15.30;99.90
22491;DHT22;11412;50.802;4.350;2022-07-06T06:18:35;15.30;99.90
22491;DHT22;11412;50.802;4.350;2022-07-06T06:21:00;15.40;99.90
22491;DHT22;11412;50.802;4.350;2022-07-06T06:23:26;15.60;99.90
22491;DHT22;11412;50.802;4.350;2022-07-06T06:25:52;15.90;99.90
22491;DHT22;11412;50.802;4.350;2022-07-06T06:28:17;16.00;99.90
22491;DHT22;11412;50.802;4.350;2022-07-06T06:30:43;16.20;99.90
22491;DHT22;11412;50.802;4.350;2022-07-06T06:33:16;16.40;99.90
22491;DHT22;11412;50.802;4.350;2022-07-06T06:35:47;16.80;99.90
22491;DHT22;11412;50.802;4.350;2022-07-06T06:38:14;16.70;99.90
22491;DHT22;11412;50.802;4.350;2022-07-06T06:40:40;16.90;99.90
22491;DHT22;11412;50.802;4.350;2022-07-06T06:43:06;17.00;99.90
22491;DHT22;11412;50.802;4.350;2022-07-06T06:45:31;17.20;99.90
22491;DHT22;11412;50.802;4.350;2022-07-06T06:47:57;17.50;99.90
22491;DHT22;11412;50.802;4.350;2022-07-06T06:50:23;17.50;99.90
22491;DHT22;11412;50.802;4.350;2022-07-06T06:52:49;17.60;99.90
22491;DHT22;11412;50.802;4.350;2022-07-06T06:55:16;17.70;99.90
22491;DHT22;11412;50.802;4.350;2022-07-06T06:57:42;17.80;99.90
22491;DHT22;11412;50.802;4.350;2022-07-06T07:00:09;17.80;99.90
22491;DHT22;11412;50.802;4.350;2022-07-06T07:02:35;18.00;99.90
22491;DHT22;11412;50.802;4.350;2022-07-06T07:05:01;18.20;99.90
22491;DHT22;11412;50.802;4.350;2022-07-06T07:07:27;18.20;99.90
22491;DHT22;11412;50.802;4.350;2022-07-06T07:09:53;18.10;99.90
22491;DHT22;11412;50.802;4.350;2022-07-06T07:12:18;18.30;99.90
22491;DHT22;11412;50.802;4.350;2022-07-06T07:14:44;18.50;99.90
22491;DHT22;11412;50.802;4.350;2022-07-06T07:17:10;18.50;99.90
22491;DHT22;11412;50.802;4.350;2022-07-06T07:19:37;18.50;99.90
22491;DHT22;11412;50.802;4.350;2022-07-06T07:22:03;18.80;99.90
22491;DHT22;11412;50.802;4.350;2022-07-06T07:24:28;18.90;99.90
22491;DHT22;11412;50.802;4.350;2022-07-06T07:26:54;19.20;99.90
22491;DHT22;11412;50.802;4.350;2022-07-06T07:29:20;19.30;99.90
22491;DHT22;11412;50.802;4.350;2022-07-06T07:31:45;19.30;99.90
22491;DHT22;11412;50.802;4.350;2022-07-06T07:34:11;19.20;99.90
22491;DHT22;11412;50.802;4.350;2022-07-06T07:36:36;19.20;99.90
22491;DHT22;11412;50.802;4.350;2022-07-06T07:39:03;19.30;99.90
22491;DHT22;11412;50.802;4.350;2022-07-06T07:41:29;19.40;99.90
22491;DHT22;11412;50.802;4.350;2022-07-06T07:43:54;19.50;99.90
22491;DHT22;11412;50.802;4.350;2022-07-06T07:46:20;19.40;99.90
22491;DHT22;11412;50.802;4.350;2022-07-06T07:48:46;19.50;99.90
22491;DHT22;11412;50.802;4.350;2022-07-06T07:51:11;19.80;99.90
22491;DHT22;11412;50.802;4.350;2022-07-06T07:53:37;20.10;99.90
22491;DHT22;11412;50.802;4.350;2022-07-06T07:56:03;20.00;99.90
22491;DHT22;11412;50.802;4.350;2022-07-06T07:58:29;19.70;99.90
22491;DHT22;11412;50.802;4.350;2022-07-06T08:00:55;19.70;99.90
22491;DHT22;11412;50.802;4.350;2022-07-06T08:03:21;19.70;99.90
22491;DHT22;11412;50.802;4.350;2022-07-06T08:05:46;19.80;99.90
22491;DHT22;11412;50.802;4.350;2022-07-06T08:08:14;19.90;99.90
22491;DHT22;11412;50.802;4.350;2022-07-06T08:10:40;19.90;99.90
22491;DHT22;11412;50.802;4.350;2022-07-06T08:13:05;19.90;99.90
22491;DHT22;11412;50.802;4.350;2022-07-06T08:15:33;20.00;99.90
22491;DHT22;11412;50.802;4.350;2022-07-06T08:17:59;20.10;99.90
22491;DHT22;11412;50.802;4.350;2022-07-06T08:20:25;20.10;99.90
22491;DHT22;11412;50.802;4.350;2022-07-06T08:22:50;20.40;99.90
22491;DHT22;11412;50.802;4.350;2022-07-06T08:25:16;20.50;99.90
22491;DHT22;11412;50.802;4.350;2022-07-06T08:27:43;20.60;99.90
22491;DHT22;11412;50.802;4.350;2022-07-06T08:30:10;20.50;99.90
22491;DHT22;11412;50.802;4.350;2022-07-06T08:32:42;20.50;99.90
22491;DHT22;11412;50.802;4.350;2022-07-06T08:35:09;20.70;99.90
22491;DHT22;11412;50.802;4.350;2022-07-06T08:37:35;21.10;99.90
22491;DHT22;11412;50.802;4.350;2022-07-06T08:40:02;21.20;99.90
22491;DHT22;11412;50.802;4.350;2022-07-06T08:42:33;21.10;99.90
22491;DHT22;11412;50.802;4.350;2022-07-06T08:45:00;21.00;99.90
22491;DHT22;11412;50.802;4.350;2022-07-06T08:47:30;21.10;99.90
22491;DHT22;11412;50.802;4.350;2022-07-06T08:49:56;21.70;99.90
22491;DHT22;11412;50.802;4.350;2022-07-06T08:52:25;21.90;99.90
22491;DHT22;11412;50.802;4.350;2022-07-06T08:54:51;21.90;99.90
22491;DHT22;11412;50.802;4.350;2022-07-06T08:57:17;22.40;99.90
22491;DHT22;11412;50.802;4.350;2022-07-06T08:59:43;22.70;99.90
22491;DHT22;11412;50.802;4.350;2022-07-06T09:02:10;22.10;99.90
22491;DHT22;11412;50.802;4.350;2022-07-06T09:04:36;21.80;99.90
22491;DHT22;11412;50.802;4.350;2022-07-06T09:07:03;21.60;99.90
22491;DHT22;11412;50.802;4.350;2022-07-06T09:09:30;21.50;99.90
22491;DHT22;11412;50.802;4.350;2022-07-06T09:11:56;22.10;99.90
22491;DHT22;11412;50.802;4.350;2022-07-06T09:14:22;22.90;99.90
22491;DHT22;11412;50.802;4.350;2022-07-06T09:16:52;23.30;99.90
22491;DHT22;11412;50.802;4.350;2022-07-06T09:19:26;23.40;99.90
22491;DHT22;11412;50.802;4.350;2022-07-06T09:21:51;23.30;99.90
22491;DHT22;11412;50.802;4.350;2022-07-06T09:24:18;23.10;99.90
22491;DHT22;11412;50.802;4.350;2022-07-06T09:26:45;22.80;99.90
22491;DHT22;11412;50.802;4.350;2022-07-06T09:29:12;22.30;99.90
22491;DHT22;11412;50.802;4.350;2022-07-06T09:31:40;22.00;99.90
22491;DHT22;11412;50.802;4.350;2022-07-06T09:34:07;21.80;99.90
22491;DHT22;11412;50.802;4.350;2022-07-06T09:36:47;21.60;99.90
22491;DHT22;11412;50.802;4.350;2022-07-06T09:41:53;21.50;99.90
22491;DHT22;11412;50.802;4.350;2022-07-06T09:44:27;21.40;99.90
22491;DHT22;11412;50.802;4.350;2022-07-06T09:46:57;21.10;99.90
22491;DHT22;11412;50.802;4.350;2022-07-06T09:49:24;21.10;99.90
22491;DHT22;11412;50.802;4.350;2022-07-06T09:51:55;21.20;99.90
22491;DHT22;11412;50.802;4.350;2022-07-06T09:54:21;21.50;99.90
22491;DHT22;11412;50.802;4.350;2022-07-06T09:56:48;21.60;99.90
22491;DHT22;11412;50.802;4.350;2022-07-06T09:59:18;21.70;99.90
22491;DHT22;11412;50.802;4.350;2022-07-06T10:01:44;21.80;99.90
22491;DHT22;11412;50.802;4.350;2022-07-06T10:04:13;21.70;99.90
22491;DHT22;11412;50.802;4.350;2022-07-06T10:06:40;22.00;99.90
22491;DHT22;11412;50.802;4.350;2022-07-06T10:09:07;21.60;99.90
22491;DHT22;11412;50.802;4.350;2022-07-06T10:11:51;21.60;99.90
22491;DHT22;11412;50.802;4.350;2022-07-06T10:14:21;21.70;99.90
22491;DHT22;11412;50.802;4.350;2022-07-06T10:16:47;22.00;99.90
22491;DHT22;11412;50.802;4.350;2022-07-06T10:19:16;21.70;99.90
22491;DHT22;11412;50.802;4.350;2022-07-06T10:21:43;21.70;99.90
22491;DHT22;11412;50.802;4.350;2022-07-06T10:24:09;21.70;99.90
22491;DHT22;11412;50.802;4.350;2022-07-06T10:26:37;21.80;99.90
22491;DHT22;11412;50.802;4.350;2022-07-06T10:29:04;22.10;99.90
22491;DHT22;11412;50.802;4.350;2022-07-06T10:31:31;22.20;99.90
22491;DHT22;11412;50.802;4.350;2022-07-06T10:34:00;22.10;99.90
22491;DHT22;11412;50.802;4.350;2022-07-06T10:36:27;22.10;99.90
22491;DHT22;11412;50.802;4.350;2022-07-06T10:38:54;21.90;99.90
22491;DHT22;11412;50.802;4.350;2022-07-06T10:41:31;21.80;99.90
22491;DHT22;11412;50.802;4.350;2022-07-06T10:43:57;21.80;99.90
22491;DHT22;11412;50.802;4.350;2022-07-06T10:46:27;21.50;99.90
22491;DHT22;11412;50.802;4.350;2022-07-06T10:48:54;21.60;99.90
22491;DHT22;11412;50.802;4.350;2022-07-06T10:51:27;21.60;99.90
22491;DHT22;11412;50.802;4.350;2022-07-06T10:53:57;22.10;99.90
22491;DHT22;11412;50.802;4.350;2022-07-06T10:56:43;22.50;99.90
22491;DHT22;11412;50.802;4.350;2022-07-06T10:59:12;22.50;99.90
22491;DHT22;11412;50.802;4.350;2022-07-06T11:01:38;22.90;99.90
22491;DHT22;11412;50.802;4.350;2022-07-06T11:04:08;22.80;99.90
22491;DHT22;11412;50.802;4.350;2022-07-06T11:06:39;22.80;99.90
22491;DHT22;11412;50.802;4.350;2022-07-06T11:09:11;22.90;99.90
22491;DHT22;11412;50.802;4.350;2022-07-06T11:11:38;22.60;99.90
22491;DHT22;11412;50.802;4.350;2022-07-06T11:14:13;22.90;99.90
22491;DHT22;11412;50.802;4.350;2022-07-06T11:19:23;23.50;99.90
22491;DHT22;11412;50.802;4.350;2022-07-06T11:22:06;23.60;99.90
22491;DHT22;11412;50.802;4.350;2022-07-06T11:24:33;23.30;99.90
22491;DHT22;11412;50.802;4.350;2022-07-06T11:27:00;22.90;99.90
22491;DHT22;11412;50.802;4.350;2022-07-06T11:29:28;22.80;99.90
22491;DHT22;11412;50.802;4.350;2022-07-06T11:31:56;22.80;99.90
22491;DHT22;11412;50.802;4.350;2022-07-06T11:34:27;22.50;99.90
22491;DHT22;11412;50.802;4.350;2022-07-06T11:37:03;22.60;99.90
22491;DHT22;11412;50.802;4.350;2022-07-06T11:39:31;23.10;99.90
22491;DHT22;11412;50.802;4.350;2022-07-06T11:41:58;23.50;99.90
22491;DHT22;11412;50.802;4.350;2022-07-06T11:44:24;23.60;99.90
22491;DHT22;11412;50.802;4.350;2022-07-06T11:46:50;23.40;99.90
22491;DHT22;11412;50.802;4.350;2022-07-06T11:49:17;23.20;99.90
22491;DHT22;11412;50.802;4.350;2022-07-06T11:51:44;23.30;99.90
22491;DHT22;11412;50.802;4.350;2022-07-06T11:54:16;23.50;99.90
22491;DHT22;11412;50.802;4.350;2022-07-06T11:56:55;23.90;99.90
22491;DHT22;11412;50.802;4.350;2022-07-06T11:59:33;23.80;99.90
22491;DHT22;11412;50.802;4.350;2022-07-06T12:02:08;23.40;99.90
22491;DHT22;11412;50.802;4.350;2022-07-06T12:04:36;23.20;99.90
22491;DHT22;11412;50.802;4.350;2022-07-06T12:07:04;23.00;99.90
22491;DHT22;11412;50.802;4.350;2022-07-06T12:09:32;22.90;99.90
22491;DHT22;11412;50.802;4.350;2022-07-06T12:11:57;23.30;99.90
22491;DHT22;11412;50.802;4.350;2022-07-06T12:14:23;23.40;99.90
22491;DHT22;11412;50.802;4.350;2022-07-06T12:16:49;23.20;99.90
22491;DHT22;11412;50.802;4.350;2022-07-06T12:19:16;23.50;99.90
22491;DHT22;11412;50.802;4.350;2022-07-06T12:21:50;23.60;99.90
22491;DHT22;11412;50.802;4.350;2022-07-06T12:24:27;23.30;99.90
22491;DHT22;11412;50.802;4.350;2022-07-06T12:26:54;23.10;99.90
22491;DHT22;11412;50.802;4.350;2022-07-06T12:29:20;23.10;99.90
22491;DHT22;11412;50.802;4.350;2022-07-06T12:31:50;22.70;99.90
22491;DHT22;11412;50.802;4.350;2022-07-06T12:37:09;22.60;99.90
22491;DHT22;11412;50.802;4.350;2022-07-06T12:39:45;23.00;99.90
22491;DHT22;11412;50.802;4.350;2022-07-06T12:42:14;23.40;99.90
22491;DHT22;11412;50.802;4.350;2022-07-06T12:44:45;23.70;99.90
22491;DHT22;11412;50.802;4.350;2022-07-06T12:47:12;24.30;99.90
22491;DHT22;11412;50.802;4.350;2022-07-06T12:49:38;25.00;99.90
22491;DHT22;11412;50.802;4.350;2022-07-06T12:52:11;25.10;99.90
22491;DHT22;11412;50.802;4.350;2022-07-06T12:54:41;25.50;99.90
22491;DHT22;11412;50.802;4.350;2022-07-06T12:57:13;25.10;99.90
22491;DHT22;11412;50.802;4.350;2022-07-06T13:02:08;24.60;99.90
22491;DHT22;11412;50.802;4.350;2022-07-06T13:04:36;24.30;99.90
22491;DHT22;11412;50.802;4.350;2022-07-06T13:07:02;23.90;99.90
22491;DHT22;11412;50.802;4.350;2022-07-06T13:09:29;23.50;99.90
22491;DHT22;11412;50.802;4.350;2022-07-06T13:11:56;23.70;99.90
22491;DHT22;11412;50.802;4.350;2022-07-06T13:14:21;24.20;99.90
22491;DHT22;11412;50.802;4.350;2022-07-06T13:16:48;23.80;99.90
22491;DHT22;11412;50.802;4.350;2022-07-06T13:19:14;23.50;99.90
22491;DHT22;11412;50.802;4.350;2022-07-06T13:21:40;23.40;99.90
22491;DHT22;11412;50.802;4.350;2022-07-06T13:24:07;23.10;99.90
22491;DHT22;11412;50.802;4.350;2022-07-06T13:26:33;23.10;99.90
22491;DHT22;11412;50.802;4.350;2022-07-06T13:29:03;22.90;99.90
22491;DHT22;11412;50.802;4.350;2022-07-06T13:31:29;23.20;99.90
22491;DHT22;11412;50.802;4.350;2022-07-06T13:33:55;23.70;99.90
22491;DHT22;11412;50.802;4.350;2022-07-06T13:36:21;23.90;99.90
22491;DHT22;11412;50.802;4.350;2022-07-06T13:38:46;24.20;99.90
22491;DHT22;11412;50.802;4.350;2022-07-06T13:41:12;24.60;99.90
22491;DHT22;11412;50.802;4.350;2022-07-06T13:43:38;24.80;99.90
22491;DHT22;11412;50.802;4.350;2022-07-06T13:46:04;25.00;99.90
22491;DHT22;11412;50.802;4.350;2022-07-06T13:48:31;25.40;99.90
22491;DHT22;11412;50.802;4.350;2022-07-06T13:50:56;25.40;99.90
22491;DHT22;11412;50.802;4.350;2022-07-06T13:53:22;25.20;99.90
22491;DHT22;11412;50.802;4.350;2022-07-06T13:55:48;24.70;99.90
22491;DHT22;11412;50.802;4.350;2022-07-06T13:58:14;24.50;99.90
22491;DHT22;11412;50.802;4.350;2022-07-06T14:00:40;24.80;99.90
22491;DHT22;11412;50.802;4.350;2022-07-06T14:03:05;24.30;99.90
22491;DHT22;11412;50.802;4.350;2022-07-06T14:05:31;23.80;99.90
22491;DHT22;11412;50.802;4.350;2022-07-06T14:07:57;23.70;99.90
22491;DHT22;11412;50.802;4.350;2022-07-06T14:10:23;23.20;99.90
22491;DHT22;11412;50.802;4.350;2022-07-06T14:12:49;23.40;99.90
22491;DHT22;11412;50.802;4.350;2022-07-06T14:15:14;23.60;99.90
22491;DHT22;11412;50.802;4.350;2022-07-06T14:17:40;23.60;99.90
22491;DHT22;11412;50.802;4.350;2022-07-06T14:20:06;23.50;99.90
22491;DHT22;11412;50.802;4.350;2022-07-06T14:22:32;23.90;99.90
22491;DHT22;11412;50.802;4.350;2022-07-06T14:24:58;24.10;99.90
22491;DHT22;11412;50.802;4.350;2022-07-06T14:27:24;24.60;99.90
22491;DHT22;11412;50.802;4.350;2022-07-06T14:29:49;25.10;99.90
22491;DHT22;11412;50.802;4.350;2022-07-06T14:32:15;25.10;99.90
22491;DHT22;11412;50.802;4.350;2022-07-06T14:34:41;24.90;99.90
22491;DHT22;11412;50.802;4.350;2022-07-06T14:37:07;24.60;99.90
22491;DHT22;11412;50.802;4.350;2022-07-06T14:39:33;24.20;99.90
22491;DHT22;11412;50.802;4.350;2022-07-06T14:41:59;24.30;99.90
22491;DHT22;11412;50.802;4.350;2022-07-06T14:44:25;24.60;99.90
22491;DHT22;11412;50.802;4.350;2022-07-06T14:46:51;24.60;99.90
22491;DHT22;11412;50.802;4.350;2022-07-06T14:49:17;24.70;99.90
22491;DHT22;11412;50.802;4.350;2022-07-06T14:51:43;24.80;99.90
22491;DHT22;11412;50.802;4.350;2022-07-06T14:54:09;24.70;99.90
22491;DHT22;11412;50.802;4.350;2022-07-06T14:56:35;25.10;99.90
22491;DHT22;11412;50.802;4.350;2022-07-06T14:59:01;25.20;99.90
22491;DHT22;11412;50.802;4.350;2022-07-06T15:01:27;25.50;99.90
22491;DHT22;11412;50.802;4.350;2022-07-06T15:03:52;25.60;99.90
22491;DHT22;11412;50.802;4.350;2022-07-06T15:06:18;25.60;99.90
22491;DHT22;11412;50.802;4.350;2022-07-06T15:08:44;25.50;99.90
22491;DHT22;11412;50.802;4.350;2022-07-06T15:11:09;25.50;99.90
22491;DHT22;11412;50.802;4.350;2022-07-06T15:13:35;24.80;99.90
22491;DHT22;11412;50.802;4.350;2022-07-06T15:16:01;24.70;99.90
22491;DHT22;11412;50.802;4.350;2022-07-06T15:18:26;24.70;99.90
22491;DHT22;11412;50.802;4.350;2022-07-06T15:20:52;24.50;99.90
22491;DHT22;11412;50.802;4.350;2022-07-06T15:23:18;24.50;99.90
22491;DHT22;11412;50.802;4.350;2022-07-06T15:25:44;24.40;99.90
22491;DHT22;11412;50.802;4.350;2022-07-06T15:28:10;24.20;99.90
22491;DHT22;11412;50.802;4.350;2022-07-06T15:30:35;23.90;99.90
22491;DHT22;11412;50.802;4.350;2022-07-06T15:33:02;23.70;99.90
22491;DHT22;11412;50.802;4.350;2022-07-06T15:35:28;23.70;99.90
22491;DHT22;11412;50.802;4.350;2022-07-06T15:37:54;23.90;99.90